Time;durP1;ratioP1;P1;durP2;ratioP2;P2;SDS_P1;SDS_P2;PMS_P1;PMS_P2;Temp;Humidity;BMP_temperature;BMP_pressure;BME280_temperature;BME280_humidity;BME280_pressure;Samples;Min_cycle;Max_cycle;Signal;HPM_P1;HPM_P2
2023/09/06 00:02:31;;;;;;;7.13;3.80;;;;;;;;;;4971045;28;20193;-90
2023/09/06 00:05:41;;;;;;;7.85;4.13;;;;;;;;;;4970800;28;20262;-89
2023/09/06 00:08:46;;;;;;;6.68;3.97;;;;;;;;;;4981999;28;20213;-93
2023/09/06 00:11:51;;;;;;;6.93;3.85;;;;;;;;;;5004452;28;20265;-90
2023/09/06 00:14:57;;;;;;;12.48;4.07;;;;;;;;;;5003465;28;20193;-90
2023/09/06 00:18:05;;;;;;;7.28;3.90;;;;;;;;;;4965747;28;20238;-90
2023/09/06 00:21:10;;;;;;;10.52;4.40;;;;;;;;;;4983519;28;20209;-90
2023/09/06 00:24:15;;;;;;;9.48;4.00;;;;;;;;;;4986506;28;20269;-92
2023/09/06 00:27:20;;;;;;;6.53;3.90;;;;;;;;;;4985331;28;20238;-91
2023/09/06 00:30:27;;;;;;;11.27;4.22;;;;;;;;;;4985126;28;20342;-91
2023/09/06 00:33:35;;;;;;;6.30;3.50;;;;;;;;;;4985241;28;20229;-93
2023/09/06 00:36:40;;;;;;;6.57;3.63;;;;;;;;;;4985280;28;20696;-92
2023/09/06 00:39:46;;;;;;;10.40;3.60;;;;;;;;;;4963059;29;20186;-92
2023/09/06 00:42:52;;;;;;;8.32;3.83;;;;;;;;;;4964223;29;20198;-91
2023/09/06 00:45:59;;;;;;;11.75;4.07;;;;;;;;;;4964503;29;20214;-90
2023/09/06 00:49:06;;;;;;;10.77;4.25;;;;;;;;;;4979775;28;20210;-89
2023/09/06 00:52:11;;;;;;;6.80;4.10;;;;;;;;;;4985222;28;20245;-89
2023/09/06 00:55:17;;;;;;;7.43;4.32;;;;;;;;;;4984293;28;20198;-90
2023/09/06 00:58:22;;;;;;;7.10;4.35;;;;;;;;;;4977408;28;20198;-90
2023/09/06 01:01:28;;;;;;;8.85;4.75;;;;;;;;;;4965751;28;20194;-90
2023/09/06 01:04:34;;;;;;;9.60;3.80;;;;;;;;;;4967246;28;20182;-87
2023/09/06 01:07:40;;;;;;;7.95;4.63;;;;;;;;;;4967798;28;20206;-92
2023/09/06 01:10:45;;;;;;;13.63;4.03;;;;;;;;;;4984470;28;20253;-91
2023/09/06 01:13:50;;;;;;;8.00;4.00;;;;;;;;;;4984823;28;20193;-92
2023/09/06 01:16:57;;;;;;;6.35;3.72;;;;;;;;;;4984137;28;20185;-90
2023/09/06 01:20:08;;;;;;;6.68;3.95;;;;;;;;;;4970007;28;20379;-89
2023/09/06 01:23:23;;;;;;;6.63;3.45;;;;;;;;;;4974476;28;20565;-90
2023/09/06 01:29:45;;;;;;;9.15;3.90;;;;;;;;;;4968905;28;20238;-90
2023/09/06 01:32:57;;;;;;;8.85;4.47;;;;;;;;;;4965138;28;20564;-92
2023/09/06 01:36:08;;;;;;;8.48;3.90;;;;;;;;;;4966039;29;20182;-92
2023/09/06 01:39:22;;;;;;;8.45;4.63;;;;;;;;;;4965082;28;20175;-91
2023/09/06 01:42:32;;;;;;;6.55;4.10;;;;;;;;;;4965692;28;20198;-91
2023/09/06 01:45:45;;;;;;;8.07;4.15;;;;;;;;;;4963685;28;20210;-94
2023/09/06 01:48:59;;;;;;;5.95;3.72;;;;;;;;;;4974501;28;20214;-93
2023/09/06 01:52:11;;;;;;;10.38;4.25;;;;;;;;;;4974080;28;20195;-89
2023/09/06 01:55:24;;;;;;;10.75;4.57;;;;;;;;;;4963563;28;20193;-90
2023/09/06 01:58:37;;;;;;;6.20;3.90;;;;;;;;;;4980533;28;20210;-91
2023/09/06 02:01:54;;;;;;;6.78;3.97;;;;;;;;;;4961245;28;20210;-91
2023/09/06 02:05:05;;;;;;;9.27;3.83;;;;;;;;;;4961587;28;20434;-93
2023/09/06 02:08:16;;;;;;;7.40;3.92;;;;;;;;;;4963017;28;20342;-92
2023/09/06 02:11:31;;;;;;;8.43;4.95;;;;;;;;;;4964154;28;20298;-92
2023/09/06 02:14:43;;;;;;;7.30;4.30;;;;;;;;;;4962814;28;20222;-90
2023/09/06 02:17:55;;;;;;;6.47;3.72;;;;;;;;;;4962519;28;20194;-93
2023/09/06 02:21:07;;;;;;;6.88;3.92;;;;;;;;;;4965619;28;20222;-92
2023/09/06 02:24:18;;;;;;;10.23;4.35;;;;;;;;;;4964260;28;20194;-91
2023/09/06 02:27:31;;;;;;;7.50;4.30;;;;;;;;;;4974085;28;20191;-90
2023/09/06 02:30:43;;;;;;;10.20;5.43;;;;;;;;;;4962307;29;20223;-91
2023/09/06 02:33:55;;;;;;;20.58;6.70;;;;;;;;;;4961858;28;20206;-92
2023/09/06 02:37:06;;;;;;;18.48;7.32;;;;;;;;;;4971816;28;20199;-88
2023/09/06 02:40:20;;;;;;;18.95;7.15;;;;;;;;;;4963013;28;20190;-91
2023/09/06 02:43:33;;;;;;;16.65;7.47;;;;;;;;;;4963739;28;20275;-89
2023/09/06 02:46:45;;;;;;;11.07;5.50;;;;;;;;;;4962815;28;20195;-91
2023/09/06 02:49:59;;;;;;;11.30;5.13;;;;;;;;;;4963429;28;20226;-94
2023/09/06 02:53:19;;;;;;;13.93;6.15;;;;;;;;;;4978038;28;20206;-90
2023/09/06 02:56:31;;;;;;;12.93;5.82;;;;;;;;;;4977906;28;20182;-88
2023/09/06 02:59:43;;;;;;;15.48;6.20;;;;;;;;;;4979485;28;20214;-90
2023/09/06 03:02:58;;;;;;;13.40;6.00;;;;;;;;;;4978123;28;20206;-88
2023/09/06 03:06:17;;;;;;;13.52;5.85;;;;;;;;;;4966067;28;20262;-89
2023/09/06 03:09:32;;;;;;;12.10;5.68;;;;;;;;;;4958802;29;20199;-91
2023/09/06 03:12:48;;;;;;;11.30;5.88;;;;;;;;;;4968898;28;20252;-91
2023/09/06 03:16:04;;;;;;;14.20;6.38;;;;;;;;;;4978736;28;20246;-91
2023/09/06 03:19:16;;;;;;;10.50;4.75;;;;;;;;;;4978021;28;20202;-90
2023/09/06 03:22:28;;;;;;;9.15;5.00;;;;;;;;;;4979823;28;20673;-90
2023/09/06 03:25:40;;;;;;;8.13;4.88;;;;;;;;;;4979821;28;20207;-90
2023/09/06 03:28:55;;;;;;;9.35;4.70;;;;;;;;;;4980037;28;20235;-92
2023/09/06 03:32:09;;;;;;;10.63;4.57;;;;;;;;;;4978869;28;20567;-90
2023/09/06 03:35:23;;;;;;;11.63;4.75;;;;;;;;;;4978614;28;20246;-91
2023/09/06 03:38:34;;;;;;;10.93;5.25;;;;;;;;;;4967218;28;20225;-92
2023/09/06 03:41:48;;;;;;;11.40;5.13;;;;;;;;;;4977733;28;20267;-92
2023/09/06 03:45:02;;;;;;;15.07;5.28;;;;;;;;;;4966593;29;20198;-91
2023/09/06 03:48:17;;;;;;;12.50;6.22;;;;;;;;;;4967500;28;20514;-94
2023/09/06 03:51:29;;;;;;;10.85;5.65;;;;;;;;;;4947973;29;20694;-91
2023/09/06 03:54:41;;;;;;;12.05;5.57;;;;;;;;;;4959786;29;20211;-92
2023/09/06 03:57:53;;;;;;;12.75;6.05;;;;;;;;;;4945206;29;20343;-93
2023/09/06 04:01:10;;;;;;;11.65;6.15;;;;;;;;;;4947692;29;20319;-91
2023/09/06 04:04:25;;;;;;;9.57;5.57;;;;;;;;;;4946197;29;20203;-93
2023/09/06 04:07:38;;;;;;;25.65;12.77;;;;;;;;;;4964205;28;20206;-90
2023/09/06 04:10:50;;;;;;;13.93;5.50;;;;;;;;;;4982679;28;20222;-91
2023/09/06 04:14:03;;;;;;;11.95;5.82;;;;;;;;;;4987635;28;20302;-92
2023/09/06 04:17:15;;;;;;;10.93;6.20;;;;;;;;;;4948731;29;20192;-91
2023/09/06 04:20:31;;;;;;;12.88;5.30;;;;;;;;;;4950065;29;20286;-91
2023/09/06 04:23:44;;;;;;;11.43;5.93;;;;;;;;;;4949776;29;20386;-92
2023/09/06 04:26:59;;;;;;;15.23;6.10;;;;;;;;;;4948073;29;20207;-93
2023/09/06 04:30:15;;;;;;;13.88;5.57;;;;;;;;;;4956643;28;20217;-92
2023/09/06 04:33:29;;;;;;;13.85;5.22;;;;;;;;;;4987725;28;20205;-94
2023/09/06 04:36:52;;;;;;;11.60;5.57;;;;;;;;;;4986747;28;20205;-92
2023/09/06 04:40:06;;;;;;;12.93;6.53;;;;;;;;;;4950005;29;20312;-91
2023/09/06 04:43:18;;;;;;;13.15;5.78;;;;;;;;;;4956153;28;20210;-89
2023/09/06 04:46:30;;;;;;;14.40;6.20;;;;;;;;;;4984776;28;20197;-89
2023/09/06 04:49:45;;;;;;;19.60;5.78;;;;;;;;;;4960272;29;20183;-90
2023/09/06 04:52:58;;;;;;;13.07;5.55;;;;;;;;;;4961082;28;20328;-91
2023/09/06 04:56:10;;;;;;;14.35;5.40;;;;;;;;;;4964995;29;20199;-90
2023/09/06 04:59:27;;;;;;;12.27;5.15;;;;;;;;;;4961837;28;20217;-90
2023/09/06 05:02:38;;;;;;;10.98;5.32;;;;;;;;;;4963122;28;20194;-92
2023/09/06 05:05:51;;;;;;;10.18;4.93;;;;;;;;;;4974926;28;20330;-91
2023/09/06 05:09:04;;;;;;;16.77;6.88;;;;;;;;;;4964733;28;20210;-87
2023/09/06 05:12:20;;;;;;;11.95;6.70;;;;;;;;;;4974447;28;20199;-87
2023/09/06 05:15:32;;;;;;;9.68;5.80;;;;;;;;;;4975472;28;20276;-92
2023/09/06 05:18:44;;;;;;;13.40;6.05;;;;;;;;;;4962451;28;20210;-89
2023/09/06 05:21:56;;;;;;;17.13;6.55;;;;;;;;;;4967669;28;20242;-88
2023/09/06 05:25:09;;;;;;;14.82;6.63;;;;;;;;;;4966696;29;20218;-92
2023/09/06 05:28:21;;;;;;;11.90;5.90;;;;;;;;;;4976803;28;20221;-90
2023/09/06 05:31:38;;;;;;;12.82;5.90;;;;;;;;;;4965113;28;20575;-90
2023/09/06 05:34:50;;;;;;;10.13;5.53;;;;;;;;;;4965812;28;20315;-92
2023/09/06 05:38:03;;;;;;;14.27;7.13;;;;;;;;;;4964558;29;20198;-90
2023/09/06 05:41:16;;;;;;;12.95;6.25;;;;;;;;;;4955598;29;20264;-91
2023/09/06 05:44:28;;;;;;;11.82;5.97;;;;;;;;;;4968077;28;20289;-88
2023/09/06 05:47:40;;;;;;;14.90;6.28;;;;;;;;;;4946519;29;20190;-91
2023/09/06 05:50:53;;;;;;;12.75;6.30;;;;;;;;;;4954680;29;20271;-88
2023/09/06 05:54:10;;;;;;;12.52;5.40;;;;;;;;;;4975048;28;20207;-90
2023/09/06 05:57:25;;;;;;;13.07;5.32;;;;;;;;;;4976501;28;20250;-92
2023/09/06 06:00:37;;;;;;;11.27;5.40;;;;;;;;;;4965375;28;20680;-89
2023/09/06 06:03:49;;;;;;;9.75;5.47;;;;;;;;;;4968980;28;20214;-88
2023/09/06 06:07:02;;;;;;;10.57;5.90;;;;;;;;;;4979963;28;20214;-90
2023/09/06 06:10:14;;;;;;;15.48;5.70;;;;;;;;;;4971013;28;20190;-91
2023/09/06 06:13:27;;;;;;;11.88;5.57;;;;;;;;;;4976056;28;20201;-92
2023/09/06 06:16:41;;;;;;;11.73;5.10;;;;;;;;;;4972779;28;20207;-89
2023/09/06 06:19:53;;;;;;;9.85;5.35;;;;;;;;;;4971618;29;20199;-89
2023/09/06 06:23:07;;;;;;;8.25;4.50;;;;;;;;;;4971379;29;20198;-88
2023/09/06 06:26:19;;;;;;;11.18;5.00;;;;;;;;;;4983832;28;20199;-90
2023/09/06 06:29:33;;;;;;;7.65;3.97;;;;;;;;;;4973514;28;20213;-91
2023/09/06 06:32:46;;;;;;;5.72;3.90;;;;;;;;;;4975079;28;20260;-90
2023/09/06 06:35:57;;;;;;;7.63;4.50;;;;;;;;;;4973652;29;20198;-91
2023/09/06 06:39:10;;;;;;;7.55;4.60;;;;;;;;;;4972620;28;20178;-90
2023/09/06 06:42:22;;;;;;;9.35;4.82;;;;;;;;;;4972219;29;20246;-91
2023/09/06 06:45:47;;;;;;;9.18;4.63;;;;;;;;;;4973457;29;20262;-92
2023/09/06 06:48:59;;;;;;;9.25;4.53;;;;;;;;;;4984262;28;20191;-93
2023/09/06 06:52:11;;;;;;;11.23;4.82;;;;;;;;;;4973570;28;20194;-94
2023/09/06 06:55:23;;;;;;;7.68;4.10;;;;;;;;;;4974805;28;20189;-89
2023/09/06 06:58:35;;;;;;;8.07;3.90;;;;;;;;;;4985138;28;20230;-93
2023/09/06 07:01:49;;;;;;;5.32;3.40;;;;;;;;;;4976211;28;20222;-92
2023/09/06 07:05:01;;;;;;;5.90;3.58;;;;;;;;;;4972464;28;20701;-90
2023/09/06 07:08:13;;;;;;;5.63;3.78;;;;;;;;;;4973916;28;20268;-90
2023/09/06 07:11:25;;;;;;;10.18;4.10;;;;;;;;;;4972597;28;20679;-90
2023/09/06 07:14:37;;;;;;;6.63;3.63;;;;;;;;;;4973993;28;20186;-90
2023/09/06 07:17:50;;;;;;;7.53;3.97;;;;;;;;;;4982272;28;20195;-92
2023/09/06 07:21:03;;;;;;;8.90;3.53;;;;;;;;;;4972560;28;20251;-90
2023/09/06 07:24:15;;;;;;;7.07;3.58;;;;;;;;;;4974601;28;20198;-92
2023/09/06 07:27:27;;;;;;;5.22;3.35;;;;;;;;;;4973837;28;20282;-92
2023/09/06 07:30:39;;;;;;;5.75;3.80;;;;;;;;;;4970001;29;20198;-91
2023/09/06 07:33:58;;;;;;;5.72;3.85;;;;;;;;;;4974233;29;20202;-87
2023/09/06 07:37:10;;;;;;;8.82;3.63;;;;;;;;;;4974146;28;20227;-88
2023/09/06 07:40:22;;;;;;;10.73;3.60;;;;;;;;;;4972906;28;20268;-92
2023/09/06 07:43:36;;;;;;;7.38;3.65;;;;;;;;;;4972243;29;20194;-91
2023/09/06 07:46:48;;;;;;;5.93;3.40;;;;;;;;;;4972414;29;20296;-89
2023/09/06 07:50:02;;;;;;;5.20;3.38;;;;;;;;;;4971875;28;20190;-90
2023/09/06 07:53:15;;;;;;;5.47;3.20;;;;;;;;;;4979578;28;20191;-91
2023/09/06 07:56:28;;;;;;;8.23;3.28;;;;;;;;;;4967450;28;20207;-93
2023/09/06 07:59:40;;;;;;;7.85;2.92;;;;;;;;;;4966722;28;20191;-90
2023/09/06 08:02:54;;;;;;;5.63;3.00;;;;;;;;;;4968514;28;20194;-90
2023/09/06 08:06:07;;;;;;;4.50;3.05;;;;;;;;;;4968847;28;20246;-90
2023/09/06 08:09:23;;;;;;;4.47;2.90;;;;;;;;;;4968791;28;20189;-89
2023/09/06 08:12:35;;;;;;;5.20;2.95;;;;;;;;;;4966064;28;20233;-89
2023/09/06 08:15:47;;;;;;;4.85;3.10;;;;;;;;;;4968388;28;20190;-91
2023/09/06 08:18:59;;;;;;;3.95;2.55;;;;;;;;;;4968810;28;20265;-91
2023/09/06 08:22:12;;;;;;;3.78;2.50;;;;;;;;;;4967689;28;20217;-91
2023/09/06 08:25:24;;;;;;;5.40;2.78;;;;;;;;;;4966495;29;20210;-89
2023/09/06 08:28:36;;;;;;;5.07;2.70;;;;;;;;;;4966728;28;20253;-89
2023/09/06 08:31:48;;;;;;;5.55;2.70;;;;;;;;;;4974268;28;20257;-88
2023/09/06 08:38:28;;;;;;;6.15;2.97;;;;;;;;;;4970395;28;20178;-94
2023/09/06 08:41:39;;;;;;;4.85;2.60;;;;;;;;;;4972413;28;20276;-90
2023/09/06 08:44:52;;;;;;;3.97;2.78;;;;;;;;;;4971748;29;20211;-89
2023/09/06 08:48:04;;;;;;;3.15;2.25;;;;;;;;;;4971298;28;20194;-89
2023/09/06 08:51:16;;;;;;;4.47;2.40;;;;;;;;;;4971804;28;20174;-92
2023/09/06 08:54:33;;;;;;;4.43;2.28;;;;;;;;;;4981396;28;20194;-90
2023/09/06 08:57:45;;;;;;;4.03;2.70;;;;;;;;;;4973196;28;20258;-92
2023/09/06 09:00:58;;;;;;;5.35;2.70;;;;;;;;;;4971888;28;20565;-94
2023/09/06 09:04:09;;;;;;;8.52;3.35;;;;;;;;;;4971726;28;20201;-92
2023/09/06 09:07:21;;;;;;;4.88;2.40;;;;;;;;;;4970104;29;20657;-90
2023/09/06 09:10:35;;;;;;;4.40;2.40;;;;;;;;;;4971222;28;20193;-92
2023/09/06 09:13:46;;;;;;;4.60;2.20;;;;;;;;;;4971600;28;20185;-93
2023/09/06 09:17:00;;;;;;;6.13;2.80;;;;;;;;;;4969889;29;20258;-92
2023/09/06 09:20:12;;;;;;;5.22;2.63;;;;;;;;;;4971126;28;20657;-92
2023/09/06 09:23:26;;;;;;;5.15;2.40;;;;;;;;;;4970457;28;20194;-90
2023/09/06 09:26:41;;;;;;;4.22;2.80;;;;;;;;;;4972711;28;20190;-92
2023/09/06 09:29:54;;;;;;;4.28;2.60;;;;;;;;;;4972589;28;20202;-89
2023/09/06 09:33:06;;;;;;;4.57;2.33;;;;;;;;;;4972364;28;20221;-90
2023/09/06 09:36:19;;;;;;;4.10;2.30;;;;;;;;;;4971748;28;20194;-90
2023/09/06 09:39:31;;;;;;;3.25;2.25;;;;;;;;;;4971486;28;20247;-92
2023/09/06 09:42:52;;;;;;;5.35;2.47;;;;;;;;;;4969897;29;20206;-89
2023/09/06 09:46:04;;;;;;;8.68;2.50;;;;;;;;;;4970946;28;20202;-93
2023/09/06 09:49:17;;;;;;;4.78;2.25;;;;;;;;;;4969526;29;20189;-93
2023/09/06 09:52:29;;;;;;;5.22;2.60;;;;;;;;;;4980587;28;20285;-92
2023/09/06 09:55:43;;;;;;;4.68;2.47;;;;;;;;;;4972132;28;20270;-91
2023/09/06 09:58:57;;;;;;;6.07;2.25;;;;;;;;;;4971261;28;20196;-90
2023/09/06 10:02:15;;;;;;;2.97;2.00;;;;;;;;;;4972986;29;20246;-90
2023/09/06 10:05:28;;;;;;;3.42;2.20;;;;;;;;;;4974943;28;20190;-91
2023/09/06 10:08:41;;;;;;;3.22;2.30;;;;;;;;;;4972884;28;20200;-92
2023/09/06 10:11:59;;;;;;;5.07;2.45;;;;;;;;;;4974295;28;20345;-93
2023/09/06 10:15:23;;;;;;;3.60;2.38;;;;;;;;;;4973976;28;20194;-92
2023/09/06 10:18:36;;;;;;;4.20;2.17;;;;;;;;;;4973009;28;20221;-92
2023/09/06 10:21:48;;;;;;;2.78;2.17;;;;;;;;;;4972957;28;20190;-92
2023/09/06 10:25:06;;;;;;;4.30;2.10;;;;;;;;;;4973482;28;20330;-91
2023/09/06 10:28:22;;;;;;;5.72;2.45;;;;;;;;;;4972632;28;20218;-91
2023/09/06 10:31:49;;;;;;;3.22;2.15;;;;;;;;;;4973844;29;20170;-90
2023/09/06 10:35:20;;;;;;;4.75;2.47;;;;;;;;;;4974364;28;20194;-93
2023/09/06 10:38:35;;;;;;;5.15;2.03;;;;;;;;;;4973225;29;20249;-91
2023/09/06 10:42:21;;;;;;;3.75;2.35;;;;;;;;;;4978861;28;20205;-92
2023/09/06 10:45:32;;;;;;;3.60;2.60;;;;;;;;;;4940303;29;20186;-93
2023/09/06 10:49:05;;;;;;;3.63;2.05;;;;;;;;;;4937491;28;20214;-91
2023/09/06 10:52:20;;;;;;;4.57;2.75;;;;;;;;;;4990847;28;20212;-92
2023/09/06 10:55:46;;;;;;;5.93;2.42;;;;;;;;;;4972849;28;20258;-92
2023/09/06 10:58:57;;;;;;;3.08;2.10;;;;;;;;;;4953319;29;20254;-91
2023/09/06 11:02:11;;;;;;;4.78;2.15;;;;;;;;;;4961410;29;20748;-90
2023/09/06 11:05:35;;;;;;;2.92;2.00;;;;;;;;;;4971498;28;20205;-92
2023/09/06 11:08:47;;;;;;;2.95;2.05;;;;;;;;;;4969708;28;20209;-90
2023/09/06 11:12:00;;;;;;;5.53;2.50;;;;;;;;;;4994708;28;20215;-92
2023/09/06 11:15:13;;;;;;;3.22;2.00;;;;;;;;;;4979869;28;20201;-94
2023/09/06 11:18:24;;;;;;;4.45;2.10;;;;;;;;;;4992283;28;20181;-92
2023/09/06 11:21:38;;;;;;;3.05;2.28;;;;;;;;;;4985379;28;20201;-92
2023/09/06 11:24:49;;;;;;;2.85;1.98;;;;;;;;;;4978412;28;20299;-93
2023/09/06 11:28:02;;;;;;;4.53;2.05;;;;;;;;;;4982607;28;20194;-92
2023/09/06 11:31:22;;;;;;;3.28;2.10;;;;;;;;;;4982883;28;20293;-93
2023/09/06 11:34:42;;;;;;;3.53;1.77;;;;;;;;;;4982008;28;20189;-90
2023/09/06 11:37:56;;;;;;;2.38;1.90;;;;;;;;;;4951135;29;20275;-92
2023/09/06 11:41:11;;;;;;;4.70;2.47;;;;;;;;;;4976461;28;20198;-93
2023/09/06 11:44:23;;;;;;;3.00;2.05;;;;;;;;;;4991636;28;20193;-93
2023/09/06 11:47:35;;;;;;;3.30;2.33;;;;;;;;;;4962582;28;20209;-93
2023/09/06 11:50:51;;;;;;;3.40;1.83;;;;;;;;;;4952414;29;20282;-91
2023/09/06 11:54:09;;;;;;;2.65;1.90;;;;;;;;;;4953041;29;20222;-93
2023/09/06 11:57:23;;;;;;;2.42;1.80;;;;;;;;;;4971396;28;20263;-93
2023/09/06 12:00:42;;;;;;;2.80;2.00;;;;;;;;;;4972599;28;20265;-92
2023/09/06 12:03:56;;;;;;;5.47;2.85;;;;;;;;;;4972959;28;20311;-92
2023/09/06 12:07:11;;;;;;;2.28;1.92;;;;;;;;;;4972064;29;20233;-92
2023/09/06 12:10:27;;;;;;;2.88;1.85;;;;;;;;;;4983272;28;20197;-93
2023/09/06 12:13:39;;;;;;;2.55;2.08;;;;;;;;;;4978880;28;20214;-91
2023/09/06 12:16:51;;;;;;;4.18;2.70;;;;;;;;;;4979720;28;20190;-93
2023/09/06 12:20:10;;;;;;;3.70;2.13;;;;;;;;;;4979925;28;20596;-91
2023/09/06 12:23:23;;;;;;;4.05;2.10;;;;;;;;;;4977469;28;20244;-93
2023/09/06 12:26:35;;;;;;;2.10;1.83;;;;;;;;;;4978331;28;20190;-95
2023/09/06 12:29:48;;;;;;;3.53;1.83;;;;;;;;;;4978417;28;20201;-93
2023/09/06 12:33:00;;;;;;;3.13;2.17;;;;;;;;;;4977423;28;20562;-91
2023/09/06 12:39:38;;;;;;;3.58;2.20;;;;;;;;;;4959338;28;20254;-91
2023/09/06 12:42:50;;;;;;;2.83;1.98;;;;;;;;;;4968936;28;20213;-94
2023/09/06 12:46:12;;;;;;;5.28;2.33;;;;;;;;;;4959050;28;20201;-95
2023/09/06 12:49:24;;;;;;;5.35;2.05;;;;;;;;;;4945701;29;20183;-89
2023/09/06 12:52:36;;;;;;;3.47;1.95;;;;;;;;;;4959945;28;20236;-91
2023/09/06 12:55:48;;;;;;;3.30;2.00;;;;;;;;;;4984822;28;20290;-91
2023/09/06 12:59:00;;;;;;;5.28;1.98;;;;;;;;;;4962309;29;20329;-93
2023/09/06 13:02:14;;;;;;;2.63;1.83;;;;;;;;;;4975836;28;20229;-91
2023/09/06 13:05:26;;;;;;;2.75;1.90;;;;;;;;;;4966097;28;20253;-89
2023/09/06 13:08:40;;;;;;;2.20;1.83;;;;;;;;;;4970112;28;20216;-92
2023/09/06 13:11:56;;;;;;;5.38;2.20;;;;;;;;;;4970642;28;20233;-90
2023/09/06 13:15:09;;;;;;;5.03;2.25;;;;;;;;;;4974537;28;20209;-91
2023/09/06 13:18:24;;;;;;;2.30;1.85;;;;;;;;;;4985486;28;20220;-88
2023/09/06 13:21:35;;;;;;;2.33;1.73;;;;;;;;;;4975568;28;20197;-89
2023/09/06 13:24:48;;;;;;;3.45;2.08;;;;;;;;;;4980049;28;20212;-91
2023/09/06 13:28:00;;;;;;;2.25;1.70;;;;;;;;;;4967911;28;20229;-92
2023/09/06 13:31:12;;;;;;;3.45;1.80;;;;;;;;;;4970653;29;20190;-92
2023/09/06 13:34:26;;;;;;;3.70;2.00;;;;;;;;;;4981575;28;20340;-89
2023/09/06 13:37:37;;;;;;;3.17;1.75;;;;;;;;;;4990423;28;20186;-92
2023/09/06 13:40:49;;;;;;;2.53;1.75;;;;;;;;;;4953104;29;20209;-90
2023/09/06 13:44:00;;;;;;;2.58;1.90;;;;;;;;;;4968447;28;20277;-89
2023/09/06 13:47:16;;;;;;;3.88;1.83;;;;;;;;;;4978431;28;20198;-89
2023/09/06 13:50:29;;;;;;;2.58;1.88;;;;;;;;;;4968940;28;20183;-89
2023/09/06 13:53:40;;;;;;;3.05;2.15;;;;;;;;;;4968342;28;20193;-89
2023/09/06 13:56:52;;;;;;;2.33;1.83;;;;;;;;;;4967559;29;20665;-91
2023/09/06 14:00:05;;;;;;;2.78;2.08;;;;;;;;;;4979642;28;20263;-91
2023/09/06 14:03:17;;;;;;;3.03;1.88;;;;;;;;;;4969356;28;20233;-92
2023/09/06 14:06:46;;;;;;;3.10;2.30;;;;;;;;;;4972205;28;20318;-91
2023/09/06 14:09:59;;;;;;;2.58;1.73;;;;;;;;;;4980962;28;20189;-90
2023/09/06 14:13:11;;;;;;;8.40;2.25;;;;;;;;;;4970391;29;20197;-90
2023/09/06 14:16:23;;;;;;;3.10;2.05;;;;;;;;;;4969671;29;20268;-89
2023/09/06 14:19:35;;;;;;;3.80;2.00;;;;;;;;;;4979931;28;20190;-92
2023/09/06 14:22:47;;;;;;;17.15;7.93;;;;;;;;;;4978744;28;20197;-88
2023/09/06 14:26:01;;;;;;;8.77;4.13;;;;;;;;;;4978280;28;20202;-93
2023/09/06 14:29:12;;;;;;;3.47;2.60;;;;;;;;;;4978334;28;20222;-89
2023/09/06 14:32:24;;;;;;;8.48;2.40;;;;;;;;;;4979895;28;20322;-91
2023/09/06 14:35:39;;;;;;;4.30;2.72;;;;;;;;;;4978676;28;20217;-90
2023/09/06 14:38:54;;;;;;;5.60;2.58;;;;;;;;;;4980267;28;20190;-92
2023/09/06 14:42:07;;;;;;;3.85;2.50;;;;;;;;;;4981411;28;20579;-83
2023/09/06 14:45:19;;;;;;;4.00;2.05;;;;;;;;;;4978571;28;20202;-91
2023/09/06 14:48:31;;;;;;;7.20;2.75;;;;;;;;;;4982546;28;20197;-92
2023/09/06 14:51:43;;;;;;;4.05;2.38;;;;;;;;;;4980143;28;20669;-92
2023/09/06 14:54:55;;;;;;;4.57;2.05;;;;;;;;;;4979183;28;20261;-92
2023/09/06 14:58:07;;;;;;;3.38;2.10;;;;;;;;;;4976808;28;20326;-93
2023/09/06 15:01:21;;;;;;;4.03;2.28;;;;;;;;;;4976369;28;20663;-89
2023/09/06 15:04:37;;;;;;;4.72;2.53;;;;;;;;;;4968778;28;20237;-89
2023/09/06 15:07:49;;;;;;;6.45;2.40;;;;;;;;;;4967763;28;20271;-90
2023/09/06 15:11:01;;;;;;;5.72;1.92;;;;;;;;;;4978911;28;20210;-91
2023/09/06 15:14:15;;;;;;;5.30;1.95;;;;;;;;;;4978874;28;20194;-87
2023/09/06 15:17:26;;;;;;;4.43;2.60;;;;;;;;;;4967981;28;20206;-90
2023/09/06 15:20:40;;;;;;;6.90;2.22;;;;;;;;;;4980982;28;20301;-89
2023/09/06 15:23:52;;;;;;;3.83;2.40;;;;;;;;;;4977025;28;20436;-92
2023/09/06 15:27:04;;;;;;;3.10;2.03;;;;;;;;;;4957617;29;20262;-89
2023/09/06 15:30:17;;;;;;;4.65;2.08;;;;;;;;;;4966098;28;20195;-91
2023/09/06 15:33:29;;;;;;;2.88;2.05;;;;;;;;;;4978856;28;20205;-92
2023/09/06 15:36:41;;;;;;;2.90;2.00;;;;;;;;;;4982175;28;20216;-89
2023/09/06 15:39:53;;;;;;;3.28;2.15;;;;;;;;;;4956049;28;20262;-89
2023/09/06 15:43:05;;;;;;;6.20;2.10;;;;;;;;;;4960479;29;20195;-90
2023/09/06 15:46:18;;;;;;;2.85;2.05;;;;;;;;;;4967142;28;20186;-91
2023/09/06 15:49:31;;;;;;;4.63;2.10;;;;;;;;;;4966899;29;20198;-92
2023/09/06 15:52:43;;;;;;;3.75;1.92;;;;;;;;;;4983561;28;20738;-89
2023/09/06 15:55:54;;;;;;;4.10;2.38;;;;;;;;;;4948415;29;20190;-92
2023/09/06 15:59:05;;;;;;;3.17;1.95;;;;;;;;;;4945441;29;20571;-89
2023/09/06 16:02:19;;;;;;;2.78;1.90;;;;;;;;;;4963328;29;20225;-89
2023/09/06 16:05:33;;;;;;;6.05;2.38;;;;;;;;;;4978925;28;20234;-90
2023/09/06 16:08:45;;;;;;;3.47;2.08;;;;;;;;;;4947579;29;20196;-89
2023/09/06 16:11:57;;;;;;;4.18;2.38;;;;;;;;;;4953098;29;20194;-90
2023/09/06 16:15:09;;;;;;;4.18;2.03;;;;;;;;;;4976109;28;20198;-88
2023/09/06 16:18:22;;;;;;;6.18;2.28;;;;;;;;;;4965823;28;20187;-93
2023/09/06 16:21:33;;;;;;;3.85;2.20;;;;;;;;;;4965115;28;20202;-91
2023/09/06 16:24:45;;;;;;;3.60;2.35;;;;;;;;;;4966400;28;20287;-92
2023/09/06 16:27:57;;;;;;;5.35;2.90;;;;;;;;;;4978048;28;20193;-91
2023/09/06 16:31:10;;;;;;;5.68;2.60;;;;;;;;;;4968630;28;20319;-89
2023/09/06 16:34:24;;;;;;;3.55;2.00;;;;;;;;;;4967069;28;20187;-89
2023/09/06 16:37:35;;;;;;;6.75;2.70;;;;;;;;;;4967349;28;20202;-89
2023/09/06 16:40:47;;;;;;;6.57;2.55;;;;;;;;;;4979615;28;20315;-91
2023/09/06 16:44:01;;;;;;;5.38;2.50;;;;;;;;;;4972488;28;20250;-91
2023/09/06 16:47:16;;;;;;;3.95;2.40;;;;;;;;;;4958665;28;20187;-89
2023/09/06 16:50:30;;;;;;;3.97;2.40;;;;;;;;;;4986525;28;20265;-92
2023/09/06 16:53:41;;;;;;;6.15;2.28;;;;;;;;;;4987624;28;20281;-92
2023/09/06 16:56:53;;;;;;;5.43;2.33;;;;;;;;;;4987262;28;20189;-90
2023/09/06 17:00:08;;;;;;;8.65;2.50;;;;;;;;;;4987477;28;20178;-89
2023/09/06 17:03:20;;;;;;;6.80;2.65;;;;;;;;;;4988856;28;20695;-91
2023/09/06 17:06:34;;;;;;;5.32;2.72;;;;;;;;;;4989698;28;20194;-89
2023/09/06 17:09:48;;;;;;;6.20;2.80;;;;;;;;;;4992346;28;20249;-90
2023/09/06 17:13:00;;;;;;;6.20;2.75;;;;;;;;;;4987867;28;20201;-92
2023/09/06 17:16:14;;;;;;;6.35;2.75;;;;;;;;;;4989781;28;20202;-90
2023/09/06 17:19:26;;;;;;;6.30;2.70;;;;;;;;;;4992285;28;20193;-91
2023/09/06 17:22:40;;;;;;;7.47;2.75;;;;;;;;;;4989157;28;20194;-92
2023/09/06 17:25:53;;;;;;;7.05;2.88;;;;;;;;;;4988584;28;20214;-88
2023/09/06 17:29:07;;;;;;;4.40;2.63;;;;;;;;;;4967025;29;20226;-91
2023/09/06 17:32:20;;;;;;;4.70;2.63;;;;;;;;;;4969687;28;20193;-91
2023/09/06 17:35:33;;;;;;;6.35;3.40;;;;;;;;;;4969877;29;20231;-89
2023/09/06 17:38:47;;;;;;;13.50;3.75;;;;;;;;;;4971344;28;20361;-89
2023/09/06 17:42:00;;;;;;;6.68;2.60;;;;;;;;;;4971917;28;20198;-88
2023/09/06 17:45:15;;;;;;;6.43;2.60;;;;;;;;;;4950854;29;20306;-91
2023/09/06 17:48:26;;;;;;;8.18;3.20;;;;;;;;;;4948464;29;20234;-90
2023/09/06 17:51:38;;;;;;;8.25;2.72;;;;;;;;;;4950570;29;20239;-92
2023/09/06 17:54:54;;;;;;;7.68;3.05;;;;;;;;;;4950155;29;20199;-90
2023/09/06 17:58:06;;;;;;;8.15;2.83;;;;;;;;;;4950719;29;20203;-90
2023/09/06 18:01:18;;;;;;;6.72;2.90;;;;;;;;;;4959587;29;20559;-91
2023/09/06 18:04:31;;;;;;;8.05;3.13;;;;;;;;;;4949445;29;20223;-91
2023/09/06 18:07:43;;;;;;;6.40;2.90;;;;;;;;;;4947876;29;20231;-92
2023/09/06 18:11:11;;;;;;;4.93;2.90;;;;;;;;;;4949527;29;20191;-89
2023/09/06 18:14:25;;;;;;;9.45;2.90;;;;;;;;;;4950011;29;20192;-88
2023/09/06 18:17:45;;;;;;;5.72;3.10;;;;;;;;;;4950155;29;20202;-92
2023/09/06 18:20:57;;;;;;;8.13;3.58;;;;;;;;;;4951040;29;20191;-90
2023/09/06 18:24:14;;;;;;;7.05;3.20;;;;;;;;;;4965773;28;20219;-92
2023/09/06 18:27:26;;;;;;;7.97;3.17;;;;;;;;;;4954272;29;20239;-90
2023/09/06 18:30:44;;;;;;;7.63;3.45;;;;;;;;;;4959575;29;20211;-90
2023/09/06 18:33:57;;;;;;;6.63;3.72;;;;;;;;;;4972890;28;20191;-91
2023/09/06 18:37:08;;;;;;;8.52;3.90;;;;;;;;;;4972990;28;20650;-91
2023/09/06 18:40:21;;;;;;;7.22;3.85;;;;;;;;;;4972757;29;20185;-90
2023/09/06 18:43:33;;;;;;;11.93;5.07;;;;;;;;;;4972733;28;20552;-92
2023/09/06 18:46:45;;;;;;;7.10;3.45;;;;;;;;;;4972891;29;20219;-89
2023/09/06 18:49:57;;;;;;;8.57;4.13;;;;;;;;;;4973351;28;20256;-91
2023/09/06 18:53:09;;;;;;;7.95;3.90;;;;;;;;;;4984543;28;20203;-92
2023/09/06 18:56:21;;;;;;;8.95;3.85;;;;;;;;;;4983887;28;20195;-94
2023/09/06 18:59:33;;;;;;;9.20;4.47;;;;;;;;;;4972542;28;20190;-92
2023/09/06 19:02:46;;;;;;;7.40;3.88;;;;;;;;;;4983250;28;20198;-90
2023/09/06 19:06:00;;;;;;;6.22;3.70;;;;;;;;;;4972780;28;20181;-88
2023/09/06 19:09:16;;;;;;;6.95;4.07;;;;;;;;;;4973730;28;20218;-93
2023/09/06 19:12:33;;;;;;;7.47;3.92;;;;;;;;;;4972082;28;20194;-88
2023/09/06 19:15:47;;;;;;;8.25;4.07;;;;;;;;;;4972087;28;20301;-90
2023/09/06 19:19:01;;;;;;;9.88;4.65;;;;;;;;;;4971634;28;20217;-91
2023/09/06 19:22:13;;;;;;;7.70;3.90;;;;;;;;;;4972202;28;20190;-93
2023/09/06 19:25:41;;;;;;;8.48;4.18;;;;;;;;;;4972515;28;20666;-91